Time;durP1;ratioP1;P1;durP2;ratioP2;P2;SDS_P1;SDS_P2;PMS_P1;PMS_P2;Temp;Humidity;BMP_temperature;BMP_pressure;BME280_temperature;BME280_humidity;BME280_pressure;Samples;Min_cycle;Max_cycle;Signal;HPM_P1;HPM_P2
2021/11/20 00:00:24;;;;;;;0.10;0.10;;;;;;;12.85;100.00;100987.59;5049110;28;20689;-50
2021/11/20 00:03:28;;;;;;;3.33;0.85;;;;;;;12.86;100.00;100997.56;5038584;28;20028;-50
2021/11/20 00:06:36;;;;;;;0.73;0.40;;;;;;;12.81;100.00;100995.38;5036434;28;20032;-50
2021/11/20 00:09:40;;;;;;;0.60;0.60;;;;;;;12.88;100.00;100984.69;5036733;28;20672;-50
2021/11/20 00:12:44;;;;;;;0.20;0.20;;;;;;;12.87;100.00;100985.13;5038911;28;20884;-50
2021/11/20 00:15:50;;;;;;;0.45;0.20;;;;;;;12.89;100.00;100991.03;5041283;28;20040;-50
2021/11/20 00:18:54;;;;;;;4.60;0.75;;;;;;;12.88;100.00;100990.28;5041140;28;20071;-50
2021/11/20 00:22:08;;;;;;;0.65;0.30;;;;;;;12.87;100.00;100979.53;5046162;28;20068;-50
2021/11/20 00:25:24;;;;;;;1.33;0.88;;;;;;;12.84;100.00;100986.06;5038087;28;20075;-50
2021/11/20 00:28:43;;;;;;;7.30;1.38;;;;;;;12.85;100.00;100979.22;5038534;28;20821;-50
2021/11/20 00:31:53;;;;;;;9.45;1.38;;;;;;;12.84;100.00;100972.84;5041616;28;20032;-50
2021/11/20 00:35:03;;;;;;;4.15;1.98;;;;;;;12.84;100.00;100967.25;5041235;28;20321;-51
2021/11/20 00:38:09;;;;;;;1.25;0.98;;;;;;;12.81;100.00;100973.78;5040526;28;20124;-51
2021/11/20 00:41:20;;;;;;;14.13;1.63;;;;;;;12.79;100.00;100967.09;5039530;28;20067;-50
2021/11/20 00:44:25;;;;;;;10.45;1.95;;;;;;;12.87;100.00;100968.34;5038760;28;20035;-50
2021/11/20 00:47:28;;;;;;;4.78;1.85;;;;;;;12.85;100.00;100962.44;5039315;28;20027;-50
2021/11/20 00:50:33;;;;;;;7.57;2.05;;;;;;;12.86;100.00;100959.19;5040163;28;20251;-50
2021/11/20 00:53:36;;;;;;;1.65;1.20;;;;;;;12.87;100.00;100959.97;5040337;28;20408;-50
2021/11/20 00:56:40;;;;;;;0.93;0.28;;;;;;;12.87;100.00;100954.38;5039572;28;20467;-50
2021/11/20 00:59:43;;;;;;;10.30;0.73;;;;;;;12.85;100.00;100952.03;5039580;28;20246;-50
2021/11/20 01:02:47;;;;;;;0.88;0.70;;;;;;;12.82;100.00;100947.38;5039999;28;20086;-50
2021/11/20 01:05:53;;;;;;;0.20;0.20;;;;;;;12.80;100.00;100938.69;5043737;28;20055;-50
2021/11/20 01:08:56;;;;;;;5.78;0.80;;;;;;;12.74;100.00;100942.56;5074143;28;20048;-50
2021/11/20 01:12:10;;;;;;;1.27;0.40;;;;;;;12.76;100.00;100942.84;5074531;28;20234;-50
2021/11/20 01:15:19;;;;;;;0.30;0.20;;;;;;;12.86;100.00;100947.25;5074319;28;20172;-50
2021/11/20 01:18:24;;;;;;;0.25;0.25;;;;;;;12.93;100.00;100932.94;5074274;28;20624;-50
2021/11/20 01:21:28;;;;;;;1.27;0.45;;;;;;;12.92;100.00;100931.41;5074584;28;20039;-50
2021/11/20 01:24:31;;;;;;;2.25;0.50;;;;;;;13.02;100.00;100938.53;5074193;28;20061;-50
2021/11/20 01:27:34;;;;;;;2.55;0.47;;;;;;;13.03;100.00;100923.31;5073976;28;20043;-50
2021/11/20 01:30:37;;;;;;;2.08;0.85;;;;;;;12.95;100.00;100924.84;5073986;28;20063;-50
2021/11/20 01:33:42;;;;;;;0.65;0.40;;;;;;;12.98;100.00;100918.34;5073617;28;20515;-50
2021/11/20 01:36:47;;;;;;;1.10;0.68;;;;;;;13.00;100.00;100915.84;5074058;28;20097;-50
2021/11/20 01:39:51;;;;;;;1.67;0.47;;;;;;;13.01;100.00;100914.63;5072428;28;20083;-50
2021/11/20 01:42:54;;;;;;;1.67;0.52;;;;;;;13.01;100.00;100909.03;5074008;28;20047;-50
2021/11/20 01:46:04;;;;;;;0.20;0.10;;;;;;;12.98;100.00;100909.94;5073767;28;20507;-50
2021/11/20 01:49:16;;;;;;;2.55;0.95;;;;;;;12.98;100.00;100900.78;5073488;28;20044;-50
2021/11/20 01:52:21;;;;;;;1.05;0.43;;;;;;;12.91;100.00;100901.88;5072891;28;20051;-50
2021/11/20 01:55:50;;;;;;;0.50;0.30;;;;;;;12.89;100.00;100902.34;5073225;28;20043;-50
2021/11/20 01:59:11;;;;;;;3.22;0.65;;;;;;;12.90;100.00;100903.91;5073086;28;20055;-50
2021/11/20 02:02:36;;;;;;;0.63;0.30;;;;;;;12.91;100.00;100899.06;5073714;28;20044;-50
2021/11/20 02:06:13;;;;;;;0.45;0.45;;;;;;;12.91;100.00;100896.28;5073068;28;20105;-50
2021/11/20 02:09:47;;;;;;;0.30;0.20;;;;;;;12.99;100.00;100894.75;5073315;28;20059;-50
2021/11/20 02:12:54;;;;;;;0.40;0.40;;;;;;;12.98;100.00;100890.38;5072983;28;20400;-50
2021/11/20 02:16:13;;;;;;;0.93;0.50;;;;;;;13.01;100.00;100883.06;5075967;28;20066;-50
2021/11/20 02:19:21;;;;;;;3.13;0.38;;;;;;;12.97;100.00;100888.84;5075383;28;20111;-50
2021/11/20 02:22:38;;;;;;;3.40;0.47;;;;;;;12.98;100.00;100895.97;5077844;28;20046;-50
2021/11/20 02:25:41;;;;;;;1.17;0.57;;;;;;;12.96;100.00;100884.47;5073268;28;20050;-50
2021/11/20 02:28:46;;;;;;;1.80;0.40;;;;;;;13.04;100.00;100896.88;5072762;28;20091;-51
2021/11/20 02:31:56;;;;;;;7.75;0.55;;;;;;;13.13;100.00;100891.31;5072670;28;20071;-50
2021/11/20 02:34:58;;;;;;;1.58;0.70;;;;;;;13.10;100.00;100895.06;5072484;28;20043;-50
2021/11/20 02:38:03;;;;;;;0.28;0.25;;;;;;;13.05;100.00;100883.72;5072569;28;20404;-50
2021/11/20 02:41:08;;;;;;;0.32;0.32;;;;;;;13.04;100.00;100873.75;5073014;28;20051;-50
2021/11/20 02:44:15;;;;;;;2.28;0.20;;;;;;;13.06;100.00;100883.25;5072726;28;20054;-50
2021/11/20 02:47:37;;;;;;;1.33;0.43;;;;;;;13.08;100.00;100875.16;5072612;28;20063;-50
2021/11/20 02:50:44;;;;;;;5.68;0.47;;;;;;;13.06;100.00;100872.06;5072515;28;20523;-50
2021/11/20 02:53:54;;;;;;;1.27;0.20;;;;;;;13.19;100.00;100864.28;5072366;28;20040;-50
2021/11/20 02:57:03;;;;;;;1.33;0.80;;;;;;;13.18;100.00;100868.34;5072339;28;20063;-50
2021/11/20 03:00:13;;;;;;;0.20;0.10;;;;;;;13.22;100.00;100863.34;5072305;28;20060;-50
2021/11/20 03:03:16;;;;;;;0.30;0.30;;;;;;;13.42;100.00;100872.00;5083070;28;20044;-50
2021/11/20 03:06:19;;;;;;;0.20;0.17;;;;;;;13.34;100.00;100870.78;5072465;28;20044;-50
2021/11/20 03:09:28;;;;;;;2.92;0.20;;;;;;;13.26;100.00;100863.97;5072023;28;20043;-50
2021/11/20 03:12:31;;;;;;;0.80;0.30;;;;;;;13.22;100.00;100862.56;5072616;28;20444;-50
2021/11/20 03:15:34;;;;;;;0.32;0.32;;;;;;;13.24;100.00;100860.84;5071884;28;20047;-50
2021/11/20 03:18:37;;;;;;;0.20;0.20;;;;;;;13.20;100.00;100853.88;5072125;28;20169;-50
2021/11/20 03:21:45;;;;;;;1.75;0.40;;;;;;;13.32;100.00;100852.94;5071578;28;20404;-50
2021/11/20 03:24:49;;;;;;;1.17;0.77;;;;;;;13.30;100.00;100849.78;5080678;28;20067;-50
2021/11/20 03:27:52;;;;;;;0.63;0.45;;;;;;;13.32;100.00;100850.13;5072188;28;20059;-50
2021/11/20 03:30:54;;;;;;;1.33;1.05;;;;;;;13.26;100.00;100847.16;5071914;28;20178;-51
2021/11/20 03:33:57;;;;;;;0.82;0.20;;;;;;;13.21;100.00;100842.19;5071820;28;20524;-50
2021/11/20 03:37:02;;;;;;;7.43;0.35;;;;;;;13.15;100.00;100838.50;5071887;28;20051;-50
2021/11/20 03:40:09;;;;;;;0.35;0.30;;;;;;;13.24;100.00;100837.69;5070955;28;20089;-50
2021/11/20 03:43:13;;;;;;;0.15;0.10;;;;;;;13.23;100.00;100836.91;5073700;28;20568;-50
2021/11/20 03:46:16;;;;;;;1.25;0.40;;;;;;;13.20;100.00;100826.69;5085036;28;20403;-50
2021/11/20 03:49:19;;;;;;;0.25;0.13;;;;;;;13.18;100.00;100822.78;5071564;28;20043;-50
2021/11/20 03:52:24;;;;;;;0.22;0.22;;;;;;;13.19;100.00;100819.53;5074172;28;20132;-50
2021/11/20 03:55:31;;;;;;;0.20;0.20;;;;;;;13.29;100.00;100815.47;5071908;28;20039;-50
2021/11/20 03:58:34;;;;;;;0.32;0.22;;;;;;;13.37;100.00;100813.88;5072103;28;20621;-50
2021/11/20 04:01:37;;;;;;;0.82;0.43;;;;;;;13.54;100.00;100815.06;5071772;28;20043;-50
2021/11/20 04:04:40;;;;;;;0.30;0.30;;;;;;;13.51;100.00;100818.03;5074008;28;20044;-50
2021/11/20 04:07:44;;;;;;;0.40;0.30;;;;;;;13.48;100.00;100808.56;5075844;28;20507;-50
2021/11/20 04:10:50;;;;;;;0.13;0.10;;;;;;;13.48;100.00;100802.97;5075470;28;20039;-50
2021/11/20 04:13:54;;;;;;;0.15;0.15;;;;;;;13.49;100.00;100807.28;5073793;28;20043;-51
2021/11/20 04:16:57;;;;;;;0.70;0.20;;;;;;;13.48;100.00;100797.38;5074901;28;20050;-50
2021/11/20 04:20:02;;;;;;;3.03;2.38;;;;;;;13.41;100.00;100796.91;5075362;28;20054;-51
2021/11/20 04:23:05;;;;;;;1.13;0.25;;;;;;;13.35;100.00;100799.59;5085714;28;20074;-50
2021/11/20 04:26:08;;;;;;;0.28;0.20;;;;;;;13.36;100.00;100789.19;5075214;28;20052;-50
2021/11/20 04:29:12;;;;;;;2.38;0.30;;;;;;;13.42;100.00;100799.25;5074952;28;20048;-50
2021/11/20 04:32:15;;;;;;;0.15;0.10;;;;;;;13.41;100.00;100789.31;5075152;28;20077;-50
2021/11/20 04:35:19;;;;;;;11.13;0.57;;;;;;;13.40;100.00;100787.78;5075054;28;20055;-51
2021/11/20 04:38:23;;;;;;;9.45;0.20;;;;;;;13.35;100.00;100782.81;5074693;28;20043;-50
2021/11/20 04:41:27;;;;;;;1.98;0.32;;;;;;;13.23;100.00;100778.16;5074973;28;20090;-50
2021/11/20 04:44:30;;;;;;;12.48;0.57;;;;;;;13.14;100.00;100783.81;5074927;28;20750;-50
2021/11/20 04:47:33;;;;;;;0.28;0.22;;;;;;;13.08;100.00;100777.28;5074801;28;20047;-50
2021/11/20 04:50:37;;;;;;;0.30;0.22;;;;;;;13.35;100.00;100779.22;5075086;28;20101;-50
2021/11/20 04:53:42;;;;;;;0.30;0.30;;;;;;;13.40;100.00;100773.78;5074715;28;20078;-50
2021/11/20 04:56:45;;;;;;;3.53;0.50;;;;;;;13.53;100.00;100779.16;5074611;28;20405;-50
2021/11/20 04:59:48;;;;;;;0.38;0.28;;;;;;;13.58;100.00;100772.91;5081127;28;20043;-50
2021/11/20 05:02:52;;;;;;;0.10;0.10;;;;;;;13.55;100.00;100763.44;5082168;28;20404;-50
2021/11/20 05:05:56;;;;;;;0.50;0.45;;;;;;;13.52;100.00;100764.38;5074374;28;20063;-50
2021/11/20 05:09:00;;;;;;;1.85;0.80;;;;;;;13.56;100.00;100764.19;5074395;28;20396;-50
2021/11/20 05:12:07;;;;;;;0.50;0.38;;;;;;;13.58;100.00;100762.47;5074533;28;20035;-50
2021/11/20 05:15:13;;;;;;;6.45;0.77;;;;;;;13.58;100.00;100751.28;5073139;28;20044;-50
2021/11/20 05:18:16;;;;;;;0.55;0.30;;;;;;;13.62;100.00;100745.53;5073908;28;20052;-50
2021/11/20 05:21:21;;;;;;;0.30;0.30;;;;;;;13.59;100.00;100738.06;5074679;28;20455;-50
2021/11/20 05:24:24;;;;;;;0.55;0.32;;;;;;;13.63;100.00;100733.84;5084156;28;20043;-50
2021/11/20 05:27:27;;;;;;;8.77;1.27;;;;;;;13.60;100.00;100732.00;5073818;28;20059;-50
2021/11/20 05:30:36;;;;;;;1.33;0.43;;;;;;;13.34;100.00;100730.88;5073975;28;20545;-50
2021/11/20 05:33:43;;;;;;;1.30;0.43;;;;;;;13.29;100.00;100734.34;5073674;28;20128;-50
2021/11/20 05:36:46;;;;;;;7.68;0.70;;;;;;;13.28;100.00;100724.38;5073768;28;20067;-50
2021/11/20 05:39:49;;;;;;;1.70;0.50;;;;;;;13.26;100.00;100726.88;5084431;28;20511;-50
2021/11/20 05:42:55;;;;;;;3.33;0.52;;;;;;;13.21;100.00;100733.13;5073703;28;20132;-50
2021/11/20 05:46:12;;;;;;;0.45;0.20;;;;;;;13.20;100.00;100720.38;5084313;28;20051;-50
2021/11/20 05:49:15;;;;;;;6.38;0.95;;;;;;;13.25;100.00;100728.16;5073604;28;20047;-51
2021/11/20 05:52:18;;;;;;;0.43;0.40;;;;;;;13.39;100.00;100723.88;5073861;28;20051;-50
2021/11/20 05:55:26;;;;;;;1.35;0.35;;;;;;;13.42;100.00;100718.13;5074149;28;20110;-51
2021/11/20 05:58:30;;;;;;;0.63;0.52;;;;;;;13.32;100.00;100711.00;5073978;28;20450;-50
2021/11/20 06:01:34;;;;;;;0.65;0.38;;;;;;;13.25;100.00;100702.97;5073970;28;20075;-50
2021/11/20 06:04:37;;;;;;;0.38;0.38;;;;;;;13.29;100.00;100703.56;5073745;28;20043;-50
2021/11/20 06:07:40;;;;;;;0.38;0.20;;;;;;;13.25;100.00;100702.97;5073592;28;20036;-51
2021/11/20 06:10:44;;;;;;;1.75;0.40;;;;;;;13.25;100.00;100708.56;5073953;28;20124;-50
2021/11/20 06:13:47;;;;;;;5.38;0.20;;;;;;;13.21;100.00;100709.97;5073689;28;20519;-50
2021/11/20 06:16:50;;;;;;;2.65;0.40;;;;;;;13.18;100.00;100706.09;5073167;28;20044;-50
2021/11/20 06:19:53;;;;;;;3.28;0.32;;;;;;;13.19;100.00;100712.47;5072611;28;20451;-51
2021/11/20 06:22:56;;;;;;;1.55;0.32;;;;;;;13.21;100.00;100710.72;5071652;28;20039;-50
2021/11/20 06:25:59;;;;;;;4.15;0.35;;;;;;;13.20;100.00;100700.81;5072100;28;20141;-51
2021/11/20 06:29:04;;;;;;;0.17;0.17;;;;;;;13.19;100.00;100710.44;5073192;28;20089;-50
2021/11/20 06:32:07;;;;;;;0.22;0.10;;;;;;;13.29;100.00;100705.59;5072799;28;20047;-50
2021/11/20 06:35:13;;;;;;;0.73;0.32;;;;;;;13.31;100.00;100695.47;5073016;28;20071;-50
2021/11/20 06:38:17;;;;;;;0.90;0.30;;;;;;;13.36;100.00;100697.59;5072494;28;20487;-50
2021/11/20 06:41:20;;;;;;;0.20;0.20;;;;;;;13.38;100.00;100700.72;5072686;28;20093;-50
2021/11/20 06:44:24;;;;;;;0.10;0.10;;;;;;;13.40;100.00;100705.84;5072391;28;20427;-50
2021/11/20 06:47:27;;;;;;;0.10;0.10;;;;;;;13.38;100.00;100697.91;5072813;28;20052;-50
2021/11/20 06:50:32;;;;;;;10.65;0.30;;;;;;;13.40;100.00;100706.63;5072864;28;20397;-51
2021/11/20 06:53:37;;;;;;;3.90;0.38;;;;;;;13.42;100.00;100695.72;5072002;28;20047;-50
2021/11/20 06:57:04;;;;;;;0.40;0.25;;;;;;;13.40;100.00;100700.25;5072489;28;20499;-50
2021/11/20 07:00:26;;;;;;;0.45;0.40;;;;;;;13.24;100.00;100701.41;5072275;28;20063;-50
2021/11/20 07:03:35;;;;;;;0.10;0.10;;;;;;;13.17;100.00;100693.34;5072518;28;20062;-50
2021/11/20 07:06:46;;;;;;;0.25;0.25;;;;;;;13.12;100.00;100698.84;5072368;28;20039;-50
2021/11/20 07:09:49;;;;;;;0.10;0.10;;;;;;;13.10;100.00;100693.72;5072761;28;20046;-50
2021/11/20 07:12:55;;;;;;;0.10;0.10;;;;;;;13.11;100.00;100698.06;5072073;28;20530;-50
2021/11/20 07:15:59;;;;;;;0.10;0.10;;;;;;;13.16;100.00;100696.63;5086111;28;20047;-50
2021/11/20 07:19:02;;;;;;;0.40;0.40;;;;;;;13.14;100.00;100690.75;5072175;28;20036;-50
2021/11/20 07:22:05;;;;;;;0.63;0.15;;;;;;;13.13;100.00;100689.97;5074424;28;20128;-50
2021/11/20 07:25:10;;;;;;;0.22;0.22;;;;;;;13.13;100.00;100694.78;5072535;28;20063;-50
2021/11/20 07:28:13;;;;;;;4.85;0.82;;;;;;;13.15;100.00;100692.28;5071850;28;20075;-50
2021/11/20 07:31:17;;;;;;;3.55;0.70;;;;;;;13.14;100.00;100685.94;5072475;28;20142;-50
2021/11/20 07:34:25;;;;;;;0.45;0.20;;;;;;;13.07;100.00;100689.06;5071827;28;20075;-50
2021/11/20 07:37:29;;;;;;;2.03;0.52;;;;;;;13.05;100.00;100690.78;5083111;28;20043;-50
2021/11/20 07:40:36;;;;;;;1.73;0.35;;;;;;;12.93;100.00;100684.88;5092532;28;20059;-50
2021/11/20 07:43:39;;;;;;;0.10;0.10;;;;;;;12.91;100.00;100692.97;5075883;28;20043;-50
2021/11/20 07:46:42;;;;;;;0.90;0.55;;;;;;;12.93;100.00;100678.50;5075609;28;20202;-50
2021/11/20 07:49:47;;;;;;;1.38;0.38;;;;;;;12.93;100.00;100679.28;5075593;28;20062;-50
2021/11/20 07:52:50;;;;;;;0.55;0.55;;;;;;;12.91;100.00;100686.59;5075329;28;20039;-50
2021/11/20 07:55:54;;;;;;;2.33;0.40;;;;;;;12.80;100.00;100686.31;5075636;28;20082;-50
2021/11/20 07:58:58;;;;;;;4.63;1.10;;;;;;;12.76;100.00;100680.91;5075570;28;20069;-50
2021/11/20 08:02:01;;;;;;;4.78;1.10;;;;;;;12.90;100.00;100674.66;5075951;28;20098;-50
2021/11/20 08:05:05;;;;;;;2.83;0.47;;;;;;;13.08;100.00;100681.44;5075859;28;20043;-50
2021/11/20 08:08:08;;;;;;;2.78;0.73;;;;;;;13.13;100.00;100675.97;5075572;28;20132;-50
2021/11/20 08:11:11;;;;;;;0.75;0.45;;;;;;;13.06;100.00;100681.16;5075377;28;20110;-51
2021/11/20 08:14:16;;;;;;;2.78;0.65;;;;;;;13.17;100.00;100679.38;5075517;28;20062;-50
2021/11/20 08:17:19;;;;;;;1.65;0.63;;;;;;;13.17;100.00;100682.16;5075701;28;20043;-50
2021/11/20 08:20:26;;;;;;;0.73;0.73;;;;;;;13.19;100.00;100678.91;5075207;28;20051;-50
2021/11/20 08:23:30;;;;;;;0.20;0.15;;;;;;;13.14;100.00;100671.16;5082327;28;20170;-50
2021/11/20 08:26:36;;;;;;;0.17;0.17;;;;;;;13.16;100.00;100669.44;5075424;28;20075;-55
2021/11/20 08:29:40;;;;;;;2.10;0.32;;;;;;;13.28;100.00;100670.47;5074479;28;20097;-55
2021/11/20 08:32:46;;;;;;;2.15;0.47;;;;;;;13.36;100.00;100671.69;5074469;28;20408;-55
2021/11/20 08:35:49;;;;;;;2.17;0.60;;;;;;;13.46;100.00;100662.75;5075429;28;20127;-55
2021/11/20 08:38:51;;;;;;;16.77;0.75;;;;;;;13.46;100.00;100662.75;5074529;28;20570;-55
2021/11/20 08:41:55;;;;;;;2.75;0.77;;;;;;;13.47;100.00;100661.47;5074918;28;20051;-55
2021/11/20 08:44:57;;;;;;;2.72;0.80;;;;;;;13.49;100.00;100656.19;5074386;28;20046;-55
2021/11/20 08:48:02;;;;;;;3.30;1.02;;;;;;;13.47;100.00;100655.88;5074110;28;20098;-55
2021/11/20 08:51:10;;;;;;;1.30;1.20;;;;;;;13.54;100.00;100651.97;5072498;28;20092;-55
2021/11/20 08:54:14;;;;;;;2.90;1.02;;;;;;;13.47;100.00;100643.94;5072739;28;20043;-56
2021/11/20 08:57:16;;;;;;;6.03;0.88;;;;;;;13.54;100.00;100638.75;5072650;28;20576;-55
2021/11/20 09:00:31;;;;;;;0.68;0.40;;;;;;;13.53;100.00;100639.22;5072859;28;20124;-55
2021/11/20 09:03:48;;;;;;;1.15;0.60;;;;;;;13.57;100.00;100637.03;5073711;28;20047;-55
2021/11/20 09:06:54;;;;;;;2.97;0.32;;;;;;;13.67;100.00;100636.47;5074436;28;20039;-55
2021/11/20 09:10:09;;;;;;;2.58;0.40;;;;;;;13.56;100.00;100633.44;5074376;28;20526;-55
2021/11/20 09:13:36;;;;;;;1.10;0.57;;;;;;;13.57;100.00;100634.22;5074432;28;20043;-55
2021/11/20 09:16:40;;;;;;;5.72;0.68;;;;;;;13.61;100.00;100637.63;5073791;28;20046;-55
2021/11/20 09:19:45;;;;;;;3.50;0.95;;;;;;;13.65;100.00;100633.38;5074360;28;20039;-55
2021/11/20 09:22:48;;;;;;;1.63;0.65;;;;;;;13.54;100.00;100627.56;5081911;28;20100;-55
2021/11/20 09:25:54;;;;;;;2.63;0.75;;;;;;;13.58;100.00;100628.13;5073758;28;20074;-55
2021/11/20 09:29:00;;;;;;;0.90;0.47;;;;;;;13.58;100.00;100630.94;5073860;28;20542;-55
2021/11/20 09:32:04;;;;;;;1.13;0.10;;;;;;;13.73;100.00;100624.63;5074163;28;20078;-55
2021/11/20 09:35:07;;;;;;;0.73;0.52;;;;;;;13.77;100.00;100625.22;5073473;28;20043;-55
2021/11/20 09:38:11;;;;;;;0.50;0.50;;;;;;;13.74;100.00;100626.16;5073738;28;20052;-55
2021/11/20 09:41:19;;;;;;;0.30;0.30;;;;;;;13.71;100.00;100627.13;5073626;28;20043;-55
2021/11/20 09:44:23;;;;;;;0.10;0.00;;;;;;;13.65;100.00;100621.41;5073829;28;20540;-55
2021/11/20 09:47:41;;;;;;;0.32;0.20;;;;;;;13.80;100.00;100607.44;5073566;28;20451;-55
2021/11/20 09:50:53;;;;;;;0.10;0.10;;;;;;;13.92;100.00;100607.19;5073652;28;20124;-55
2021/11/20 09:54:00;;;;;;;0.47;0.32;;;;;;;14.07;100.00;100610.00;5073545;28;20048;-55
2021/11/20 09:57:12;;;;;;;0.25;0.20;;;;;;;14.15;100.00;100597.16;5072919;28;20134;-55
2021/11/20 10:00:18;;;;;;;0.17;0.13;;;;;;;14.14;100.00;100595.63;5073277;28;20051;-55
2021/11/20 10:03:51;;;;;;;2.83;0.40;;;;;;;14.26;100.00;100595.34;5073062;28;20442;-55
2021/11/20 10:07:09;;;;;;;0.45;0.15;;;;;;;14.39;100.00;100590.25;5069325;28;20127;-55
2021/11/20 10:10:18;;;;;;;0.50;0.20;;;;;;;14.51;100.00;100588.38;5072694;28;20136;-55
2021/11/20 10:13:26;;;;;;;1.20;0.28;;;;;;;14.49;100.00;100582.50;5073346;28;20048;-55
2021/11/20 10:16:46;;;;;;;0.20;0.20;;;;;;;14.51;100.00;100568.78;5073184;28;20097;-55
2021/11/20 10:19:54;;;;;;;0.40;0.38;;;;;;;14.57;100.00;100578.06;5073093;28;20165;-55
2021/11/20 10:23:08;;;;;;;0.10;0.10;;;;;;;14.59;100.00;100575.53;5082283;28;20157;-55
2021/11/20 10:26:32;;;;;;;0.85;0.20;;;;;;;14.63;100.00;100581.72;5072849;28;20401;-55
2021/11/20 10:30:07;;;;;;;7.72;0.50;;;;;;;14.71;100.00;100577.25;5069765;28;20043;-55
2021/11/20 10:33:31;;;;;;;0.32;0.08;;;;;;;14.73;100.00;100580.34;5072628;28;20389;-55
2021/11/20 10:36:56;;;;;;;0.30;0.30;;;;;;;14.66;100.00;100574.38;5072665;28;20051;-55
2021/11/20 10:40:08;;;;;;;0.15;0.15;;;;;;;14.59;100.00;100569.94;5072118;28;20056;-54
2021/11/20 10:43:21;;;;;;;;;;;;;;;14.80;100.00;100563.13;5072973;28;20047;-55
2021/11/20 10:46:29;;;;;;;0.28;0.28;;;;;;;14.94;100.00;100561.53;5072329;28;20011;-55
2021/11/20 10:49:39;;;;;;;6.10;0.57;;;;;;;14.99;100.00;100558.81;5085029;28;20127;-55
2021/11/20 10:53:13;;;;;;;0.30;0.30;;;;;;;15.11;100.00;100552.09;5072205;28;20432;-55
2021/11/20 10:56:31;;;;;;;0.63;0.60;;;;;;;15.10;100.00;100547.75;5072129;28;20047;-55
2021/11/20 10:59:49;;;;;;;0.60;0.28;;;;;;;15.15;100.00;100538.63;5071731;28;20097;-55
2021/11/20 11:03:12;;;;;;;0.43;0.40;;;;;;;15.31;100.00;100539.34;5071985;28;20138;-55
2021/11/20 11:06:37;;;;;;;1.85;0.80;;;;;;;15.26;100.00;100523.19;5066622;28;20059;-55
2021/11/20 11:09:51;;;;;;;0.65;0.10;;;;;;;15.21;100.00;100524.66;5071804;28;20120;-55
2021/11/20 11:13:05;;;;;;;2.15;0.32;;;;;;;15.23;100.00;100513.72;5070372;28;20038;-55
2021/11/20 11:16:24;;;;;;;2.80;0.70;;;;;;;15.23;100.00;100499.69;5071812;28;20538;-55
2021/11/20 11:19:47;;;;;;;0.90;0.30;;;;;;;15.22;100.00;100497.38;5071163;28;20511;-51
2021/11/20 11:22:58;;;;;;;0.68;0.10;;;;;;;15.24;100.00;100494.84;5079211;28;20069;-50
2021/11/20 11:26:08;;;;;;;1.85;0.28;;;;;;;15.10;100.00;100479.63;5070907;28;20130;-50
2021/11/20 11:29:49;;;;;;;4.25;0.68;;;;;;;15.26;100.00;100467.84;5071147;28;20051;-50
2021/11/20 11:32:54;;;;;;;0.17;0.17;;;;;;;15.35;100.00;100461.31;5061154;28;20404;-51
2021/11/20 11:36:21;;;;;;;0.68;0.17;;;;;;;15.31;100.00;100460.75;5071213;28;20094;-51
2021/11/20 11:39:34;;;;;;;0.20;0.20;;;;;;;15.35;100.00;100467.69;5071562;28;20133;-50
2021/11/20 11:43:22;;;;;;;0.95;0.30;;;;;;;15.41;100.00;100457.28;5071661;28;20094;-50
2021/11/20 11:46:29;;;;;;;1.08;0.30;;;;;;;15.52;100.00;100459.47;5071414;28;20052;-50
2021/11/20 11:49:54;;;;;;;1.00;0.50;;;;;;;15.40;100.00;100457.78;5069328;28;20423;-50
2021/11/20 11:53:32;;;;;;;4.47;0.88;;;;;;;15.44;100.00;100447.16;5071103;28;20116;-50
2021/11/20 11:56:43;;;;;;;0.68;0.20;;;;;;;15.51;100.00;100443.88;5071416;28;20140;-50
2021/11/20 12:00:24;;;;;;;3.08;0.47;;;;;;;15.56;100.00;100426.34;5070430;28;20142;-50
2021/11/20 12:03:29;;;;;;;5.18;0.52;;;;;;;15.50;100.00;100429.09;5071448;28;20043;-50
2021/11/20 12:07:02;;;;;;;0.65;0.43;;;;;;;15.57;100.00;100413.84;5071332;28;20121;-50
2021/11/20 12:10:08;;;;;;;0.40;0.30;;;;;;;15.66;100.00;100413.66;5071769;28;20465;-51
2021/11/20 12:13:11;;;;;;;0.32;0.32;;;;;;;15.69;100.00;100401.44;5071164;28;20098;-51
2021/11/20 12:16:35;;;;;;;0.68;0.30;;;;;;;15.70;100.00;100388.94;5071499;28;20503;-50
2021/11/20 12:19:51;;;;;;;1.08;0.17;;;;;;;15.69;100.00;100390.19;5071250;28;20062;-50
2021/11/20 12:23:12;;;;;;;0.10;0.05;;;;;;;15.63;100.00;100392.19;5080248;28;20047;-50
2021/11/20 12:26:34;;;;;;;2.40;0.20;;;;;;;15.64;100.00;100396.53;5074665;28;20660;-50
2021/11/20 12:29:56;;;;;;;0.40;0.20;;;;;;;15.62;100.00;100390.66;5073749;28;20170;-50
2021/11/20 12:33:28;;;;;;;1.23;0.32;;;;;;;15.62;100.00;100379.41;5074826;28;20038;-50
2021/11/20 12:36:46;;;;;;;0.10;0.00;;;;;;;15.66;100.00;100382.75;5074877;28;20050;-50
2021/11/20 12:40:10;;;;;;;0.57;0.30;;;;;;;15.47;100.00;100373.94;5085419;28;20148;-50
2021/11/20 12:43:38;;;;;;;0.60;0.40;;;;;;;15.42;100.00;100371.06;5074359;28;20125;-51
2021/11/20 12:47:06;;;;;;;0.75;0.20;;;;;;;15.37;100.00;100368.97;5074547;28;20423;-50
2021/11/20 12:50:27;;;;;;;0.10;0.10;;;;;;;15.29;100.00;100368.63;5074280;28;20039;-50
2021/11/20 12:53:49;;;;;;;0.10;0.10;;;;;;;15.24;100.00;100360.16;5074064;28;20511;-50
2021/11/20 12:57:10;;;;;;;0.20;0.00;;;;;;;15.17;100.00;100367.75;5074292;28;20135;-50
2021/11/20 13:00:13;;;;;;;0.10;0.10;;;;;;;15.23;100.00;100353.00;5073690;28;20523;-50
2021/11/20 13:03:34;;;;;;;0.30;0.22;;;;;;;15.25;100.00;100344.84;5074346;28;20144;-50
2021/11/20 13:06:47;;;;;;;0.63;0.63;;;;;;;15.26;100.00;100340.78;5074284;28;20059;-50
2021/11/20 13:09:57;;;;;;;0.40;0.32;;;;;;;15.19;100.00;100339.97;5073180;28;20067;-50
2021/11/20 13:13:12;;;;;;;0.10;0.10;;;;;;;15.18;100.00;100346.84;5072948;28;20051;-51
2021/11/20 13:16:54;;;;;;;0.10;0.10;;;;;;;15.19;100.00;100342.00;5073827;28;20411;-50
2021/11/20 13:20:09;;;;;;;0.63;0.20;;;;;;;15.22;100.00;100337.44;5073849;28;20040;-50
2021/11/20 13:23:12;;;;;;;0.80;0.10;;;;;;;15.19;100.00;100325.94;5085248;28;20063;-50
2021/11/20 13:26:25;;;;;;;4.00;0.30;;;;;;;15.17;100.00;100314.44;5073764;28;20054;-50
2021/11/20 13:29:43;;;;;;;0.17;0.17;;;;;;;15.24;100.00;100304.81;5073701;28;20399;-50
2021/11/20 13:32:55;;;;;;;0.20;0.20;;;;;;;15.30;100.00;100302.03;5072691;28;20090;-50
2021/11/20 13:36:00;;;;;;;1.23;0.45;;;;;;;15.29;100.00;100289.31;5071566;28;20601;-51
2021/11/20 13:39:05;;;;;;;2.10;0.75;;;;;;;15.30;100.00;100286.00;5072343;28;20059;-50
2021/11/20 13:42:09;;;;;;;5.15;0.95;;;;;;;15.13;100.00;100283.03;5073550;28;20039;-50
2021/11/20 13:45:12;;;;;;;0.50;0.10;;;;;;;15.31;100.00;100275.53;5073728;28;20064;-50
2021/11/20 13:48:18;;;;;;;1.88;0.52;;;;;;;15.29;100.00;100266.84;5073524;28;20511;-50
2021/11/20 13:51:26;;;;;;;0.30;0.30;;;;;;;15.13;100.00;100260.59;5073451;28;20531;-50
2021/11/20 13:54:29;;;;;;;1.75;0.45;;;;;;;15.22;100.00;100261.69;5073007;28;20086;-50
2021/11/20 13:57:37;;;;;;;0.40;0.25;;;;;;;15.16;100.00;100265.19;5072554;28;20524;-50
2021/11/20 14:00:46;;;;;;;0.63;0.45;;;;;;;15.04;100.00;100252.34;5073155;28;20047;-51
2021/11/20 14:03:57;;;;;;;1.00;0.25;;;;;;;15.09;100.00;100257.22;5073033;28;20055;-50
2021/11/20 14:07:01;;;;;;;;;;;;;;;15.15;100.00;100249.66;5073354;28;20051;-50
2021/11/20 14:10:10;;;;;;;2.83;0.73;;;;;;;15.22;100.00;100244.84;5072642;28;19958;-51
2021/11/20 14:16:15;;;;;;;3.65;0.68;;;;;;;15.10;100.00;100243.97;5072977;28;20051;-50
2021/11/20 14:19:29;;;;;;;0.98;0.63;;;;;;;15.03;100.00;100241.63;5072735;28;20459;-50
2021/11/20 14:22:38;;;;;;;1.70;0.30;;;;;;;14.94;100.00;100230.59;5078705;28;20080;-50
2021/11/20 14:25:41;;;;;;;0.20;0.20;;;;;;;14.97;100.00;100230.34;5076483;28;20396;-50
2021/11/20 14:28:45;;;;;;;0.52;0.13;;;;;;;14.91;100.00;100240.75;5083467;28;20097;-50
2021/11/20 14:31:49;;;;;;;0.25;0.20;;;;;;;14.84;100.00;100229.97;5072768;28;20040;-51